Time;durP1;ratioP1;P1;durP2;ratioP2;P2;SDS_P1;SDS_P2;PMS_P1;PMS_P2;Temp;Humidity;BMP_temperature;BMP_pressure;BME280_temperature;BME280_humidity;BME280_pressure;Samples;Min_cycle;Max_cycle;Signal;HPM_P1;HPM_P2
2022/02/04 00:24:53;;;;;;;0.00;0.00;;;;;26.20;99866.00;;;;5087404;28;20048;-73
2022/02/04 00:27:26;;;;;;;0.00;0.00;;;;;26.20;99854.00;;;;5087545;28;20040;-70
2022/02/04 00:30:11;;;;;;;0.00;0.00;;;;;26.20;99859.00;;;;5086848;28;20052;-71
2022/02/04 00:32:43;;;;;;;0.00;0.00;;;;;26.30;99857.00;;;;5087504;28;20102;-72
2022/02/04 00:35:29;;;;;;;0.00;0.00;;;;;26.20;99848.00;;;;5086575;28;20044;-70
2022/02/04 00:40:33;;;;;;;0.00;0.00;;;;;26.10;99863.00;;;;5087082;28;20438;-69
2022/02/04 00:43:06;;;;;;;0.00;0.00;;;;;26.00;99866.00;;;;5087455;28;20043;-70
2022/02/04 00:57:03;;;;;;;0.00;0.00;;;;;25.80;99872.00;;;;5085424;28;20454;-72
2022/02/04 01:27:28;;;;;;;0.08;0.08;;;;;25.90;99911.00;;;;5086358;28;20514;-72
2022/02/04 01:30:03;;;;;;;0.00;0.00;;;;;25.80;99925.00;;;;5087091;28;20043;-71
2022/02/04 01:32:34;;;;;;;0.10;0.10;;;;;25.90;99913.00;;;;5086642;28;20501;-72
2022/02/04 01:35:04;;;;;;;0.00;0.00;;;;;25.90;99912.00;;;;5086279;28;20098;-71
2022/02/04 01:37:33;;;;;;;0.00;0.00;;;;;26.00;99915.00;;;;5086496;28;20043;-71
2022/02/04 01:40:04;;;;;;;0.10;0.10;;;;;25.90;99923.00;;;;5085808;28;20139;-70
2022/02/04 01:42:34;;;;;;;0.00;0.00;;;;;25.80;99907.00;;;;5085960;28;20040;-72
2022/02/04 01:45:04;;;;;;;0.00;0.00;;;;;25.80;99921.00;;;;5086269;28;20051;-71
2022/02/04 01:47:33;;;;;;;0.30;0.23;;;;;25.70;99926.00;;;;5086495;28;20060;-72
2022/02/04 01:50:04;;;;;;;0.00;0.00;;;;;25.70;99910.00;;;;5086122;28;20560;-72
2022/02/04 01:52:33;;;;;;;;;;;;;25.70;99905.00;;;;5085280;28;20117;-72
2022/02/04 01:55:04;;;;;;;0.00;0.00;;;;;25.60;99905.00;;;;5085992;28;19927;-70
2022/02/04 01:57:33;;;;;;;0.00;0.00;;;;;25.60;99896.00;;;;5086660;28;20047;-71
2022/02/04 02:00:04;;;;;;;0.00;0.00;;;;;25.50;99889.00;;;;5085915;28;20572;-71
2022/02/04 02:02:34;;;;;;;0.00;0.00;;;;;25.50;99891.00;;;;5086028;28;20143;-70
2022/02/04 02:05:04;;;;;;;0.00;0.00;;;;;25.50;99897.00;;;;5086971;28;20123;-71
2022/02/04 02:07:40;;;;;;;0.00;0.00;;;;;25.40;99913.00;;;;5085943;28;20044;-72
2022/02/04 02:10:16;;;;;;;0.00;0.00;;;;;25.50;99908.00;;;;5085837;28;20079;-72
2022/02/04 02:35:16;;;;;;;0.00;0.00;;;;;25.10;99903.00;;;;5089842;28;20480;-73
2022/02/04 02:43:30;;;;;;;0.00;0.00;;;;;25.10;99880.00;;;;5066584;28;20053;-73
2022/02/04 02:57:05;;;;;;;0.00;0.00;;;;;25.10;99901.00;;;;5089546;28;20538;-71
2022/02/04 03:02:19;;;;;;;0.00;0.00;;;;;25.10;99887.00;;;;5089344;28;20040;-72
2022/02/04 03:04:48;;;;;;;0.00;0.00;;;;;25.20;99904.00;;;;5088702;28;20037;-72
2022/02/04 03:07:17;;;;;;;0.00;0.00;;;;;25.20;99896.00;;;;5088797;28;20051;-70
2022/02/04 03:09:47;;;;;;;0.00;0.00;;;;;25.10;99912.00;;;;5088947;28;20040;-71
2022/02/04 03:12:16;;;;;;;0.10;0.10;;;;;25.10;99899.00;;;;5089322;28;20672;-70
2022/02/04 03:14:46;;;;;;;0.00;0.00;;;;;25.20;99893.00;;;;5087867;28;20051;-72
2022/02/04 03:17:15;;;;;;;0.30;0.30;;;;;25.10;99886.00;;;;5088898;28;20495;-72
2022/02/04 03:19:49;;;;;;;0.00;0.00;;;;;25.20;99894.00;;;;5088790;28;20426;-71
2022/02/04 03:22:19;;;;;;;0.00;0.00;;;;;25.30;99893.00;;;;5088953;28;20032;-71
2022/02/04 03:24:57;;;;;;;0.00;0.00;;;;;25.30;99890.00;;;;5087685;28;20051;-70
2022/02/04 03:27:39;;;;;;;0.00;0.00;;;;;25.30;99908.00;;;;5088333;28;20580;-70
2022/02/04 03:30:16;;;;;;;0.00;0.00;;;;;25.20;99894.00;;;;5087920;28;20063;-72
2022/02/04 03:32:54;;;;;;;1.30;0.80;;;;;25.20;99898.00;;;;5088488;28;20035;-72
2022/02/04 03:35:25;;;;;;;0.00;0.00;;;;;25.20;99919.00;;;;5088611;28;20052;-72
2022/02/04 03:37:56;;;;;;;0.55;0.55;;;;;25.10;99916.00;;;;5089084;28;20043;-70
2022/02/04 03:40:26;;;;;;;0.00;0.00;;;;;25.40;99913.00;;;;5087002;28;20119;-70
2022/02/04 03:42:56;;;;;;;0.00;0.00;;;;;25.40;99894.00;;;;5088540;28;20040;-72
2022/02/04 03:45:25;;;;;;;0.00;0.00;;;;;25.30;99907.00;;;;5088171;28;20044;-72
2022/02/04 03:47:54;;;;;;;0.00;0.00;;;;;25.30;99898.00;;;;5088580;28;20047;-71
2022/02/04 03:50:24;;;;;;;0.00;0.00;;;;;25.20;99914.00;;;;5086359;28;20461;-69
2022/02/04 03:52:53;;;;;;;0.00;0.00;;;;;25.20;99904.00;;;;5087976;28;20044;-71
2022/02/04 03:55:23;;;;;;;0.00;0.00;;;;;25.20;99901.00;;;;5088254;28;20059;-70
2022/02/04 03:57:52;;;;;;;0.00;0.00;;;;;25.10;99912.00;;;;5088225;28;20147;-72
2022/02/04 04:00:22;;;;;;;0.17;0.17;;;;;25.10;99904.00;;;;5088286;28;20468;-70
2022/02/04 04:02:51;;;;;;;0.00;0.00;;;;;25.10;99912.00;;;;5088376;28;20052;-72
2022/02/04 04:05:21;;;;;;;0.00;0.00;;;;;25.00;99897.00;;;;5087978;28;20059;-71
2022/02/04 04:07:50;;;;;;;0.00;0.00;;;;;25.00;99897.00;;;;5088265;28;20048;-71
2022/02/04 04:10:23;;;;;;;0.00;0.00;;;;;25.00;99895.00;;;;5087156;28;20055;-72
2022/02/04 04:12:57;;;;;;;0.38;0.38;;;;;24.90;99889.00;;;;5087728;28;20047;-71
2022/02/04 04:15:27;;;;;;;0.00;0.00;;;;;24.90;99896.00;;;;5087363;28;20048;-72
2022/02/04 04:17:57;;;;;;;0.00;0.00;;;;;24.80;99877.00;;;;5087834;28;20040;-71
2022/02/04 04:20:28;;;;;;;0.10;0.10;;;;;24.80;99884.00;;;;5088023;28;20044;-72
2022/02/04 04:22:59;;;;;;;0.00;0.00;;;;;24.70;99880.00;;;;5087693;28;20044;-71
2022/02/04 04:25:29;;;;;;;0.00;0.00;;;;;24.60;99884.00;;;;5086281;28;20511;-72
2022/02/04 04:27:59;;;;;;;0.00;0.00;;;;;24.60;99873.00;;;;5087473;28;20050;-72
2022/02/04 04:30:34;;;;;;;0.00;0.00;;;;;24.50;99875.00;;;;5088064;28;20723;-70
2022/02/04 04:33:04;;;;;;;0.00;0.00;;;;;24.40;99880.00;;;;5088441;28;20040;-70
2022/02/04 04:35:35;;;;;;;0.00;0.00;;;;;24.30;99890.00;;;;5087917;28;20047;-72
2022/02/04 04:38:27;;;;;;;;;;;;;24.30;99879.00;;;;5092989;28;20069;-71
2022/02/04 04:47:01;;;;;;;0.00;0.00;;;;;24.00;99881.00;;;;5095176;28;20052;-72
2022/02/04 05:31:04;;;;;;;0.00;0.00;;;;;23.70;99836.00;;;;5086880;28;20051;-72
2022/02/04 05:33:33;;;;;;;0.00;0.00;;;;;23.70;99853.00;;;;5085379;28;20052;-71
2022/02/04 05:36:05;;;;;;;0.00;0.00;;;;;23.70;99831.00;;;;5086570;28;20426;-71
2022/02/04 05:38:37;;;;;;;0.00;0.00;;;;;23.60;99840.00;;;;5086654;28;20445;-72
2022/02/04 05:41:10;;;;;;;0.00;0.00;;;;;23.60;99858.00;;;;5086319;28;20050;-71
2022/02/04 05:43:43;;;;;;;0.00;0.00;;;;;23.70;99861.00;;;;5086701;28;20054;-70
2022/02/04 05:46:17;;;;;;;0.00;0.00;;;;;23.80;99850.00;;;;5086715;28;20040;-72
2022/02/04 05:48:52;;;;;;;0.00;0.00;;;;;23.90;99853.00;;;;5087085;28;20040;-73
2022/02/04 05:54:21;;;;;;;0.00;0.00;;;;;23.80;99874.00;;;;5086488;28;20044;-70
2022/02/04 06:05:22;;;;;;;1.27;0.38;;;;;24.30;99913.00;;;;5086218;28;20036;-71
2022/02/04 06:10:54;;;;;;;0.40;0.35;;;;;24.40;99906.00;;;;5085980;28;20121;-72
2022/02/04 06:22:24;;;;;;;0.00;0.00;;;;;24.40;99915.00;;;;5086245;28;20396;-73
2022/02/04 06:24:43;;;;;;;0.35;0.30;;;;;24.40;99910.00;;;;5085310;28;20063;-73
2022/02/04 06:27:13;;;;;;;0.95;0.60;;;;;24.40;99901.00;;;;5085864;28;20726;-71
2022/02/04 06:29:43;;;;;;;0.03;0.03;;;;;24.40;99908.00;;;;5086496;28;20043;-72
2022/02/04 06:32:16;;;;;;;0.00;0.00;;;;;24.50;99909.00;;;;5085069;28;20159;-70
2022/02/04 06:34:47;;;;;;;0.60;0.60;;;;;24.40;99922.00;;;;5086114;28;20093;-70
2022/02/04 06:37:18;;;;;;;0.00;0.00;;;;;24.40;99911.00;;;;5086256;28;20507;-73
2022/02/04 06:39:47;;;;;;;0.00;0.00;;;;;24.40;99936.00;;;;5086466;28;20044;-72
2022/02/04 06:42:22;;;;;;;0.52;0.22;;;;;24.40;99932.00;;;;5084639;28;20052;-71
2022/02/04 06:44:53;;;;;;;0.35;0.32;;;;;24.40;99930.00;;;;5087375;28;20037;-72
2022/02/04 06:47:22;;;;;;;0.30;0.17;;;;;24.30;99919.00;;;;5085936;28;20040;-71
2022/02/04 06:49:52;;;;;;;0.00;0.00;;;;;24.40;99925.00;;;;5086369;28;20040;-71
2022/02/04 06:52:21;;;;;;;0.00;0.00;;;;;24.30;99935.00;;;;5084708;28;20118;-71
2022/02/04 06:54:50;;;;;;;0.32;0.32;;;;;24.30;99933.00;;;;5086108;28;20040;-71
2022/02/04 06:57:20;;;;;;;0.00;0.00;;;;;24.30;99935.00;;;;5085656;28;20506;-71
2022/02/04 06:59:51;;;;;;;0.00;0.00;;;;;24.30;99934.00;;;;5086376;28;20127;-72
2022/02/04 07:02:23;;;;;;;0.10;0.10;;;;;24.30;99932.00;;;;5085618;28;20114;-73
2022/02/04 07:04:53;;;;;;;0.00;0.00;;;;;24.30;99931.00;;;;5087366;28;20044;-72
2022/02/04 07:07:22;;;;;;;0.00;0.00;;;;;24.30;99921.00;;;;5089599;28;20122;-72
2022/02/04 07:09:57;;;;;;;0.00;0.00;;;;;24.30;99936.00;;;;5090600;28;20082;-73
2022/02/04 07:20:04;;;;;;;0.00;0.00;;;;;24.20;99928.00;;;;5089409;28;20391;-70
2022/02/04 07:22:34;;;;;;;0.00;0.00;;;;;24.20;99934.00;;;;5088966;28;20453;-71
2022/02/04 07:25:07;;;;;;;0.00;0.00;;;;;24.10;99935.00;;;;5089960;28;20048;-71
2022/02/04 07:27:39;;;;;;;0.15;0.15;;;;;24.10;99929.00;;;;5089223;28;20043;-71
2022/02/04 07:30:29;;;;;;;0.00;0.00;;;;;24.10;99927.00;;;;5089412;28;20043;-70
2022/02/04 07:33:15;;;;;;;0.00;0.00;;;;;24.10;99932.00;;;;5089255;28;20484;-71
2022/02/04 07:41:06;;;;;;;0.00;0.00;;;;;23.90;99903.00;;;;5089086;28;20044;-70
2022/02/04 07:43:36;;;;;;;0.00;0.00;;;;;23.90;99901.00;;;;5089283;28;20044;-70
2022/02/04 07:46:05;;;;;;;0.00;0.00;;;;;23.90;99898.00;;;;5089086;28;20044;-71
2022/02/04 07:48:35;;;;;;;0.00;0.00;;;;;23.80;99898.00;;;;5088390;28;20040;-72
2022/02/04 07:51:05;;;;;;;0.00;0.00;;;;;23.80;99899.00;;;;5088417;28;20135;-72
2022/02/04 07:53:36;;;;;;;0.00;0.00;;;;;23.80;99895.00;;;;5088613;28;20457;-73
2022/02/04 07:56:06;;;;;;;0.00;0.00;;;;;23.80;99898.00;;;;5088491;28;20123;-72
2022/02/04 07:58:36;;;;;;;0.00;0.00;;;;;23.80;99898.00;;;;5087575;28;20040;-73
2022/02/04 08:01:05;;;;;;;0.00;0.00;;;;;23.80;99908.00;;;;5088354;28;20043;-72
2022/02/04 08:03:41;;;;;;;0.00;0.00;;;;;23.80;99899.00;;;;5087887;28;20051;-72
2022/02/04 08:06:16;;;;;;;0.00;0.00;;;;;23.80;99904.00;;;;5088926;28;20122;-71
2022/02/04 08:38:31;;;;;;;0.00;0.00;;;;;23.50;99903.00;;;;5087534;28;20043;-72
2022/02/04 08:56:46;;;;;;;0.00;0.00;;;;;23.40;99883.00;;;;5087682;28;20711;-70
2022/02/04 08:59:28;;;;;;;0.00;0.00;;;;;23.30;99896.00;;;;5087048;28;20063;-70
2022/02/04 09:02:14;;;;;;;0.65;0.65;;;;;23.40;99897.00;;;;5087888;28;20052;-73
2022/02/04 09:04:48;;;;;;;0.00;0.00;;;;;23.30;99898.00;;;;5087093;28;20062;-73
2022/02/04 09:07:21;;;;;;;0.00;0.00;;;;;23.30;99885.00;;;;5087366;28;20123;-74
2022/02/04 09:09:57;;;;;;;0.00;0.00;;;;;23.30;99901.00;;;;5085273;28;20144;-71
2022/02/04 09:21:35;;;;;;;0.00;0.00;;;;;23.30;99894.00;;;;5087736;28;20036;-72
2022/02/04 09:23:29;;;;;;;0.00;0.00;;;;;23.30;99883.00;;;;5084947;28;20083;-73
2022/02/04 09:26:06;;;;;;;0.00;0.00;;;;;23.30;99885.00;;;;5085775;28;20588;-72
2022/02/04 09:28:36;;;;;;;0.00;0.00;;;;;23.30;99893.00;;;;5086708;28;20044;-73
2022/02/04 09:31:06;;;;;;;0.00;0.00;;;;;23.30;99874.00;;;;5087109;28;20044;-73
2022/02/04 09:33:35;;;;;;;0.00;0.00;;;;;23.30;99881.00;;;;5086675;28;20044;-74
2022/02/04 09:36:05;;;;;;;0.00;0.00;;;;;23.30;99891.00;;;;5086606;28;20051;-74
2022/02/04 09:38:34;;;;;;;0.00;0.00;;;;;23.30;99889.00;;;;5087002;28;20426;-74
2022/02/04 09:41:04;;;;;;;0.00;0.00;;;;;23.40;99887.00;;;;5086221;28;20091;-72
2022/02/04 09:43:35;;;;;;;0.00;0.00;;;;;23.40;99888.00;;;;5085396;28;20138;-74
2022/02/04 09:46:08;;;;;;;0.00;0.00;;;;;23.30;99899.00;;;;5087352;28;20661;-72
2022/02/04 09:48:37;;;;;;;0.00;0.00;;;;;23.30;99894.00;;;;5087500;28;20376;-73
2022/02/04 09:51:07;;;;;;;0.00;0.00;;;;;23.30;99903.00;;;;5086405;28;20055;-73
2022/02/04 10:06:36;;;;;;;0.00;0.00;;;;;23.40;99908.00;;;;5086130;28;20566;-74
2022/02/04 10:08:27;;;;;;;0.00;0.00;;;;;23.50;99896.00;;;;5086106;28;20037;-73
2022/02/04 10:12:05;;;;;;;0.00;0.00;;;;;23.60;99896.00;;;;5086490;28;20066;-74
2022/02/04 10:17:06;;;;;;;;;;;;;23.90;99935.00;;;;5087233;28;20082;-72
2022/02/04 10:22:08;;;;;;;0.00;0.00;;;;;24.20;99927.00;;;;5086695;28;20048;-74
2022/02/04 10:24:37;;;;;;;0.00;0.00;;;;;24.40;99919.00;;;;5086190;28;20040;-75
2022/02/04 10:27:17;;;;;;;0.00;0.00;;;;;24.60;99936.00;;;;5086762;28;20040;-72
2022/02/04 10:29:55;;;;;;;0.00;0.00;;;;;24.60;99928.00;;;;5086237;28;20326;-71
2022/02/04 10:32:49;;;;;;;0.00;0.00;;;;;24.50;99931.00;;;;5086657;28;20593;-74
2022/02/04 10:35:27;;;;;;;0.00;0.00;;;;;24.60;99925.00;;;;5079840;28;20056;-73
2022/02/04 10:43:36;;;;;;;0.00;0.00;;;;;24.70;99915.00;;;;5090136;28;20036;-73
2022/02/04 11:02:38;;;;;;;0.00;0.00;;;;;25.60;99885.00;;;;5088877;28;20064;-73
2022/02/04 11:05:16;;;;;;;0.00;0.00;;;;;25.90;99891.00;;;;5088829;28;20122;-71
2022/02/04 11:08:15;;;;;;;0.00;0.00;;;;;26.40;99847.00;;;;5088424;28;20054;-74
2022/02/04 11:52:28;;;;;;;0.00;0.00;;;;;26.60;99911.00;;;;5087957;28;20095;-73
2022/02/04 11:57:01;;;;;;;4.10;0.50;;;;;26.70;99905.00;;;;5089440;28;20078;-73
2022/02/04 11:59:38;;;;;;;0.00;0.00;;;;;26.60;99894.00;;;;5088974;28;20101;-74
2022/02/04 12:02:26;;;;;;;0.00;0.00;;;;;26.70;99911.00;;;;5088482;28;20085;-73
2022/02/04 12:05:19;;;;;;;0.25;0.10;;;;;26.70;99914.00;;;;5089069;28;20044;-74
2022/02/04 12:07:56;;;;;;;0.00;0.00;;;;;26.60;99922.00;;;;5081657;28;20428;-73
2022/02/04 12:10:31;;;;;;;0.00;0.00;;;;;26.60;99902.00;;;;5086761;28;20048;-72
2022/02/04 12:13:09;;;;;;;0.00;0.00;;;;;26.70;99914.00;;;;5088370;28;20070;-72
2022/02/04 12:16:05;;;;;;;0.00;0.00;;;;;26.80;99914.00;;;;5088720;28;20059;-73
2022/02/04 12:18:44;;;;;;;0.00;0.00;;;;;27.00;99916.00;;;;5088218;28;20044;-75
2022/02/04 12:21:18;;;;;;;0.00;0.00;;;;;27.00;99920.00;;;;5089070;28;20394;-73
2022/02/04 12:23:51;;;;;;;0.00;0.00;;;;;27.10;99924.00;;;;5087925;28;20036;-74
2022/02/04 12:26:36;;;;;;;0.00;0.00;;;;;27.10;99913.00;;;;5088055;28;20051;-73
2022/02/04 12:29:08;;;;;;;0.00;0.00;;;;;27.10;99916.00;;;;5086418;28;20582;-72
2022/02/04 12:31:42;;;;;;;0.00;0.00;;;;;27.10;99914.00;;;;5087638;28;20384;-74
2022/02/04 12:34:19;;;;;;;0.00;0.00;;;;;27.20;99924.00;;;;5086124;28;20514;-78
2022/02/04 12:36:54;;;;;;;0.00;0.00;;;;;27.30;99911.00;;;;5087666;28;20531;-76
2022/02/04 12:39:30;;;;;;;0.00;0.00;;;;;27.20;99916.00;;;;5087876;28;20054;-83
2022/02/04 12:42:03;;;;;;;0.00;0.00;;;;;27.10;99910.00;;;;5086771;28;20419;-79
2022/02/04 12:44:38;;;;;;;0.10;0.00;;;;;27.10;99922.00;;;;5087902;28;20101;-80
2022/02/04 12:47:10;;;;;;;0.00;0.00;;;;;27.40;99919.00;;;;5085689;28;20094;-79
2022/02/04 12:49:56;;;;;;;0.00;0.00;;;;;27.60;99916.00;;;;5086287;28;20097;-75
2022/02/04 12:52:30;;;;;;;0.00;0.00;;;;;27.70;99895.00;;;;5086333;28;20056;-74
2022/02/04 12:55:09;;;;;;;0.00;0.00;;;;;27.90;99916.00;;;;5087545;28;20043;-75
2022/02/04 13:11:09;;;;;;;0.00;0.00;;;;;28.50;99912.00;;;;5085823;28;20080;-76
2022/02/04 13:13:47;;;;;;;0.00;0.00;;;;;28.30;99909.00;;;;5086871;28;20413;-74
2022/02/04 13:16:24;;;;;;;0.00;0.00;;;;;28.40;99905.00;;;;5085737;28;20062;-78
2022/02/04 13:18:59;;;;;;;0.00;0.00;;;;;28.50;99911.00;;;;5085578;28;20085;-74
2022/02/04 13:21:32;;;;;;;1.85;0.17;;;;;28.40;99925.00;;;;5086615;28;20036;-76
2022/02/04 13:24:03;;;;;;;0.00;0.00;;;;;28.60;99904.00;;;;5087846;28;20040;-75
2022/02/04 13:26:35;;;;;;;0.00;0.00;;;;;28.70;99920.00;;;;5086961;28;20036;-74
2022/02/04 13:29:06;;;;;;;0.00;0.00;;;;;29.00;99915.00;;;;5087345;28;20063;-72
2022/02/04 13:31:37;;;;;;;0.00;0.00;;;;;29.10;99909.00;;;;5086996;28;20044;-77
2022/02/04 13:34:13;;;;;;;0.00;0.00;;;;;29.10;99928.00;;;;5085083;28;20529;-77
2022/02/04 13:36:48;;;;;;;0.00;0.00;;;;;29.20;99924.00;;;;5086974;28;20475;-74
2022/02/04 13:39:29;;;;;;;0.00;0.00;;;;;29.40;99915.00;;;;5086981;28;20048;-76
2022/02/04 13:42:27;;;;;;;0.00;0.00;;;;;29.90;99901.00;;;;5086891;28;20093;-75
2022/02/04 13:45:06;;;;;;;0.00;0.00;;;;;30.10;99893.00;;;;5086664;28;20111;-78
2022/02/04 13:47:48;;;;;;;15.02;3.33;;;;;30.60;99896.00;;;;5085348;28;20044;-76
2022/02/04 13:53:39;;;;;;;0.00;0.00;;;;;31.50;99891.00;;;;5044171;28;20045;-76
2022/02/04 13:56:41;;;;;;;0.00;0.00;;;;;31.40;99893.00;;;;5027300;28;20065;-73
2022/02/04 13:59:18;;;;;;;0.00;0.00;;;;;31.90;99911.00;;;;5079668;28;20054;-77
2022/02/04 14:01:56;;;;;;;0.00;0.00;;;;;31.50;99909.00;;;;5086906;28;20042;-78
2022/02/04 14:04:28;;;;;;;0.00;0.00;;;;;32.10;99911.00;;;;5086614;28;20470;-76
2022/02/04 14:07:10;;;;;;;0.00;0.00;;;;;31.90;99934.00;;;;5086302;28;20036;-76
2022/02/04 14:09:51;;;;;;;0.00;0.00;;;;;30.90;99931.00;;;;5086518;28;20036;-79
2022/02/04 14:12:22;;;;;;;0.00;0.00;;;;;30.70;99933.00;;;;5086003;28;20041;-79
2022/02/04 14:15:02;;;;;;;0.13;0.13;;;;;30.90;99935.00;;;;5090439;28;20048;-76
2022/02/04 14:17:32;;;;;;;0.00;0.00;;;;;30.50;99952.00;;;;5090937;28;20101;-78
2022/02/04 14:20:02;;;;;;;0.00;0.00;;;;;30.10;99960.00;;;;5090062;28;20086;-78
2022/02/04 14:22:31;;;;;;;0.00;0.00;;;;;29.70;99950.00;;;;5090382;28;20052;-76
2022/02/04 14:25:01;;;;;;;0.00;0.00;;;;;29.60;99939.00;;;;5089024;28;20048;-79
2022/02/04 14:27:31;;;;;;;0.15;0.15;;;;;29.50;99926.00;;;;5089871;28;20040;-76
2022/02/04 14:30:06;;;;;;;0.10;0.10;;;;;29.70;99926.00;;;;5090052;28;20865;-79
2022/02/04 14:32:47;;;;;;;0.10;0.10;;;;;29.40;99940.00;;;;5088441;28;20410;-75
2022/02/04 14:35:50;;;;;;;0.00;0.00;;;;;29.40;99959.00;;;;5090071;28;20445;-78
2022/02/04 14:49:51;;;;;;;0.00;0.00;;;;;30.40;99898.00;;;;5089926;28;20518;-78
2022/02/04 14:58:34;;;;;;;0.20;0.10;;;;;30.40;99907.00;;;;5090416;28;20044;-79
2022/02/04 15:05:43;;;;;;;0.00;0.00;;;;;31.00;99877.00;;;;5090147;28;20040;-79
2022/02/04 15:08:19;;;;;;;0.00;0.00;;;;;30.90;99872.00;;;;5089894;28;20040;-79
2022/02/04 15:10:50;;;;;;;0.00;0.00;;;;;30.80;99877.00;;;;5090421;28;20036;-78
2022/02/04 15:13:19;;;;;;;0.32;0.20;;;;;30.80;99880.00;;;;5089487;28;20036;-74
2022/02/04 15:15:49;;;;;;;0.00;0.00;;;;;30.90;99865.00;;;;5089168;28;20517;-77
2022/02/04 15:18:18;;;;;;;0.00;0.00;;;;;30.80;99876.00;;;;5089496;28;20093;-76
2022/02/04 15:20:53;;;;;;;0.00;0.00;;;;;30.80;99884.00;;;;5087954;28;20068;-78
2022/02/04 15:23:23;;;;;;;0.00;0.00;;;;;30.80;99874.00;;;;5088882;28;20047;-80
2022/02/04 15:25:55;;;;;;;0.17;0.10;;;;;31.10;99865.00;;;;5088695;28;20044;-75
2022/02/04 15:31:01;;;;;;;0.10;0.10;;;;;31.80;99845.00;;;;5089362;28;20055;-76
2022/02/04 15:33:34;;;;;;;;;;;;;32.30;99858.00;;;;5089519;28;20558;-75
2022/02/04 15:36:05;;;;;;;0.00;0.00;;;;;32.70;99845.00;;;;5087838;28;19960;-75
2022/02/04 15:38:34;;;;;;;0.50;0.50;;;;;33.00;99837.00;;;;5087758;28;20055;-76
2022/02/04 15:41:04;;;;;;;0.00;0.00;;;;;33.20;99834.00;;;;5088904;28;20048;-77
2022/02/04 15:43:33;;;;;;;0.00;0.00;;;;;33.40;99840.00;;;;5087011;28;20062;-76
2022/02/04 15:46:32;;;;;;;0.00;0.00;;;;;33.30;99835.00;;;;5089365;28;20160;-72
2022/02/04 15:49:10;;;;;;;0.00;0.00;;;;;33.10;99828.00;;;;5090507;28;20040;-75
2022/02/04 15:52:14;;;;;;;0.15;0.15;;;;;32.80;99818.00;;;;5094703;28;20055;-74
2022/02/04 15:54:47;;;;;;;0.00;0.00;;;;;32.70;99821.00;;;;5094252;28;20048;-76
2022/02/04 16:05:04;;;;;;;0.15;0.15;;;;;32.30;99794.00;;;;5120728;27;20043;-76
2022/02/04 16:07:34;;;;;;;0.00;0.00;;;;;31.90;99810.00;;;;5136059;27;20478;-77
2022/02/04 16:10:33;;;;;;;0.00;0.00;;;;;31.70;99798.00;;;;5115469;27;20308;-75
2022/02/04 16:12:59;;;;;;;0.00;0.00;;;;;31.30;99788.00;;;;5132502;27;20058;-76
2022/02/04 16:15:47;;;;;;;0.20;0.20;;;;;31.30;99781.00;;;;5133187;27;20063;-77
2022/02/04 16:18:22;;;;;;;0.00;0.00;;;;;31.60;99783.00;;;;5133238;27;20122;-74
2022/02/04 16:23:28;;;;;;;0.00;0.00;;;;;31.60;99759.00;;;;5129101;27;20088;-77
2022/02/04 16:28:43;;;;;;;0.65;0.65;;;;;31.50;99778.00;;;;5129319;27;20043;-75
2022/02/04 16:31:17;;;;;;;0.00;0.00;;;;;31.20;99799.00;;;;5129843;27;20047;-73
2022/02/04 16:33:48;;;;;;;0.00;0.00;;;;;31.20;99796.00;;;;5131711;27;20039;-80
2022/02/04 16:36:21;;;;;;;0.00;0.00;;;;;31.00;99803.00;;;;5105589;27;20047;-73
2022/02/04 16:38:56;;;;;;;0.00;0.00;;;;;31.10;99791.00;;;;5128416;27;20088;-74
2022/02/04 16:41:46;;;;;;;0.00;0.00;;;;;31.10;99810.00;;;;5128626;27;20090;-76
2022/02/04 16:44:16;;;;;;;0.35;0.35;;;;;30.90;99808.00;;;;5128520;27;20055;-75
2022/02/04 16:46:46;;;;;;;0.47;0.47;;;;;30.90;99812.00;;;;5128273;27;20035;-75
2022/02/04 16:49:16;;;;;;;0.30;0.30;;;;;30.80;99818.00;;;;5126953;27;20047;-75
2022/02/04 16:51:45;;;;;;;0.00;0.00;;;;;30.80;99812.00;;;;5128954;27;20057;-75
2022/02/04 16:54:18;;;;;;;0.10;0.08;;;;;30.80;99808.00;;;;5127557;27;20134;-76
2022/02/04 16:56:48;;;;;;;0.38;0.20;;;;;30.80;99802.00;;;;5128023;27;20054;-75
2022/02/04 16:59:19;;;;;;;0.10;0.10;;;;;30.80;99799.00;;;;5128929;27;20046;-75
2022/02/04 17:01:48;;;;;;;0.03;0.03;;;;;30.70;99806.00;;;;5128595;27;20075;-74
2022/02/04 17:04:19;;;;;;;0.00;0.00;;;;;30.90;99799.00;;;;5128648;27;20070;-75
2022/02/04 17:06:57;;;;;;;0.00;0.00;;;;;30.80;99804.00;;;;5127208;27;20046;-76
2022/02/04 17:09:37;;;;;;;0.00;0.00;;;;;30.60;99812.00;;;;5128210;27;20043;-74
2022/02/04 17:12:10;;;;;;;0.17;0.17;;;;;30.50;99795.00;;;;5126945;27;20399;-74
2022/02/04 17:14:40;;;;;;;0.20;0.20;;;;;30.40;99795.00;;;;5128481;27;20039;-74
2022/02/04 17:17:10;;;;;;;0.00;0.00;;;;;30.40;99788.00;;;;5127859;27;20091;-75
2022/02/04 17:19:48;;;;;;;0.15;0.15;;;;;30.30;99796.00;;;;5127147;27;20039;-74
2022/02/04 17:22:18;;;;;;;0.00;0.00;;;;;30.30;99775.00;;;;5127961;27;20039;-76
2022/02/04 17:24:48;;;;;;;0.00;0.00;;;;;30.40;99776.00;;;;5128620;27;20389;-74
2022/02/04 17:27:18;;;;;;;0.43;0.30;;;;;30.80;99774.00;;;;5128589;27;20490;-74
2022/02/04 17:29:47;;;;;;;0.03;0.03;;;;;31.00;99762.00;;;;5126901;27;20097;-75
2022/02/04 17:32:18;;;;;;;0.80;0.30;;;;;31.30;99748.00;;;;5127496;27;20050;-76
2022/02/04 17:34:47;;;;;;;0.10;0.10;;;;;32.20;99708.00;;;;5127831;27;20039;-74
2022/02/04 17:37:16;;;;;;;0.20;0.20;;;;;33.30;99702.00;;;;5127747;27;20039;-74
2022/02/04 17:39:46;;;;;;;0.00;0.00;;;;;33.40;99720.00;;;;5127506;27;20635;-75
2022/02/04 17:42:22;;;;;;;0.15;0.15;;;;;33.60;99719.00;;;;5127360;27;20057;-74
2022/02/04 17:44:54;;;;;;;0.00;0.00;;;;;33.40;99700.00;;;;5128115;27;20573;-75
2022/02/04 17:47:26;;;;;;;0.25;0.25;;;;;34.80;99717.00;;;;5127600;27;20035;-74
2022/02/04 17:50:05;;;;;;;0.00;0.00;;;;;34.70;99733.00;;;;5127450;27;20600;-76
2022/02/04 17:55:13;;;;;;;0.10;0.10;;;;;33.00;99754.00;;;;5127927;27;20410;-75
2022/02/04 17:57:53;;;;;;;0.00;0.00;;;;;32.70;99765.00;;;;5127298;28;20126;-75
2022/02/04 18:06:08;;;;;;;0.00;0.00;;;;;32.50;99763.00;;;;5125705;28;20039;-76
2022/02/04 18:08:38;;;;;;;0.00;0.00;;;;;32.30;99749.00;;;;5127393;27;20047;-76
2022/02/04 18:11:07;;;;;;;0.00;0.00;;;;;33.20;99723.00;;;;5126552;27;20047;-74
2022/02/04 18:13:37;;;;;;;0.43;0.13;;;;;36.10;99667.00;;;;5127608;28;20045;-74
2022/02/04 18:16:06;;;;;;;0.10;0.03;;;;;37.80;99679.00;;;;5126834;27;20521;-75
2022/02/04 18:18:36;;;;;;;0.00;0.00;;;;;37.60;99699.00;;;;5126985;27;20548;-74
2022/02/04 18:21:06;;;;;;;0.00;0.00;;;;;37.30;99693.00;;;;5127271;27;20047;-74
2022/02/04 18:23:35;;;;;;;0.10;0.10;;;;;36.80;99687.00;;;;5127253;27;20046;-74
2022/02/04 18:26:05;;;;;;;0.05;0.05;;;;;37.00;99705.00;;;;5126952;27;20035;-74
2022/02/04 18:28:34;;;;;;;0.20;0.20;;;;;37.40;99697.00;;;;5127493;27;20039;-74
2022/02/04 18:31:04;;;;;;;0.00;0.00;;;;;36.00;99719.00;;;;5125391;28;20610;-74
2022/02/04 18:33:33;;;;;;;0.00;0.00;;;;;34.80;99720.00;;;;5125708;28;20051;-75
2022/02/04 18:36:03;;;;;;;0.50;0.50;;;;;33.50;99757.00;;;;5127270;27;20718;-75
2022/02/04 18:43:40;;;;;;;0.00;0.00;;;;;32.70;99727.00;;;;5127042;27;20051;-77
2022/02/04 18:52:07;;;;;;;0.00;0.00;;;;;32.40;99739.00;;;;5118588;27;20074;-77
2022/02/04 18:57:16;;;;;;;0.00;0.00;;;;;37.70;99717.00;;;;5126895;27;20088;-77
2022/02/04 18:59:59;;;;;;;0.00;0.00;;;;;40.30;99713.00;;;;5126263;27;20103;-79
2022/02/04 19:02:29;;;;;;;0.00;0.00;;;;;37.00;99736.00;;;;5130728;27;20074;-77
2022/02/04 19:05:22;;;;;;;0.00;0.00;;;;;33.90;99741.00;;;;5130151;27;20043;-78
2022/02/04 19:08:02;;;;;;;0.00;0.00;;;;;36.30;99648.00;;;;5130117;27;20826;-73
2022/02/04 19:10:35;;;;;;;0.00;0.00;;;;;35.00;99699.00;;;;5130610;27;20039;-80
2022/02/04 19:13:18;;;;;;;0.00;0.00;;;;;36.70;99683.00;;;;5130966;27;20062;-75
2022/02/04 19:21:12;;;;;;;0.03;0.03;;;;;34.60;99718.00;;;;5129437;27;20520;-75
2022/02/04 19:23:49;;;;;;;1.67;0.88;;;;;33.20;99723.00;;;;5129398;27;20058;-75
2022/02/04 19:26:25;;;;;;;0.00;0.00;;;;;35.90;99622.00;;;;5129909;27;20557;-75
2022/02/04 19:28:55;;;;;;;0.10;0.10;;;;;37.90;99703.00;;;;5128676;27;20047;-74
2022/02/04 19:31:24;;;;;;;0.00;0.00;;;;;38.90;99657.00;;;;5130334;27;20055;-75
2022/02/04 19:33:54;;;;;;;0.45;0.20;;;;;37.50;99653.00;;;;5129998;27;20043;-75
2022/02/04 19:36:24;;;;;;;0.10;0.10;;;;;36.30;99684.00;;;;5130060;27;20051;-75
2022/02/04 19:38:53;;;;;;;0.00;0.00;;;;;33.90;99693.00;;;;5129506;27;20417;-79
2022/02/04 19:41:26;;;;;;;0.00;0.00;;;;;32.70;99695.00;;;;5130171;27;20053;-80